Time;durP1;ratioP1;P1;durP2;ratioP2;P2;SDS_P1;SDS_P2;PMS_P1;PMS_P2;Temp;Humidity;BMP_temperature;BMP_pressure;BME280_temperature;BME280_humidity;BME280_pressure;Samples;Min_cycle;Max_cycle;Signal;HPM_P1;HPM_P2
2023/08/03 00:01:57;;;;;;;71.87;10.17;;;18.40;99.90;;;;;;5020442;28;20404;-83
2023/08/03 00:04:22;;;;;;;72.90;10.87;;;18.30;99.90;;;;;;5020075;28;20162;-83
2023/08/03 00:06:48;;;;;;;72.73;7.43;;;18.30;99.90;;;;;;5020531;28;20174;-84
2023/08/03 00:09:14;;;;;;;71.00;8.53;;;18.40;99.90;;;;;;5020145;28;20228;-84
2023/08/03 00:11:40;;;;;;;71.50;9.67;;;18.40;99.90;;;;;;5002707;28;20178;-83
2023/08/03 00:14:05;;;;;;;70.87;8.77;;;18.40;99.90;;;;;;5019944;28;20489;-83
2023/08/03 00:16:31;;;;;;;72.10;10.77;;;18.40;99.90;;;;;;5020843;28;20604;-83
2023/08/03 00:18:56;;;;;;;71.43;9.10;;;18.30;99.90;;;;;;4986742;28;20557;-83
2023/08/03 00:21:22;;;;;;;72.60;10.77;;;18.40;99.90;;;;;;5020347;28;20170;-83
2023/08/03 00:23:48;;;;;;;73.03;10.27;;;18.40;99.90;;;;;;5020616;28;20151;-84
2023/08/03 00:26:13;;;;;;;71.37;10.47;;;18.40;99.90;;;;;;5020246;28;20228;-83
2023/08/03 00:28:39;;;;;;;71.27;10.50;;;18.40;99.90;;;;;;5020433;28;20193;-83
2023/08/03 00:31:05;;;;;;;71.37;12.07;;;18.40;99.90;;;;;;5020368;28;20170;-83
2023/08/03 00:33:30;;;;;;;72.30;12.70;;;18.40;99.90;;;;;;5019895;28;20170;-83
2023/08/03 00:35:56;;;;;;;73.43;12.47;;;18.40;99.90;;;;;;5019815;28;20277;-83
2023/08/03 00:38:22;;;;;;;72.50;13.60;;;18.40;99.90;;;;;;5020145;28;20162;-85
2023/08/03 00:40:50;;;;;;;72.47;12.20;;;18.40;99.90;;;;;;5001902;28;20166;-83
2023/08/03 00:43:16;;;;;;;71.60;10.40;;;18.40;99.90;;;;;;5002520;28;20412;-83
2023/08/03 00:45:41;;;;;;;72.23;10.57;;;18.50;99.90;;;;;;5020038;28;20753;-83
2023/08/03 00:48:07;;;;;;;71.00;9.37;;;18.50;99.90;;;;;;5002529;28;20167;-83
2023/08/03 00:50:33;;;;;;;71.13;8.10;;;18.50;99.90;;;;;;5019625;28;20173;-84
2023/08/03 00:52:59;;;;;;;72.10;8.80;;;18.60;99.90;;;;;;5019739;28;20893;-83
2023/08/03 00:55:24;;;;;;;73.87;7.80;;;18.60;99.90;;;;;;5019806;28;20158;-83
2023/08/03 00:57:50;;;;;;;70.37;7.27;;;18.60;99.90;;;;;;5018679;28;20206;-83
2023/08/03 01:00:16;;;;;;;79.37;7.37;;;18.60;99.90;;;;;;5019394;28;20276;-83
2023/08/03 01:02:41;;;;;;;70.97;7.63;;;18.60;99.90;;;;;;5001498;28;20220;-84
2023/08/03 01:05:07;;;;;;;71.20;9.10;;;18.60;99.50;;;;;;5019403;28;20401;-84
2023/08/03 01:07:34;;;;;;;74.00;7.97;;;18.70;97.00;;;;;;5001671;28;20170;-84
2023/08/03 01:10:00;;;;;;;71.10;8.30;;;18.60;97.80;;;;;;5001318;28;20209;-83
2023/08/03 01:12:27;;;;;;;73.07;9.17;;;18.60;96.70;;;;;;5019543;28;20440;-84
2023/08/03 01:14:52;;;;;;;70.67;7.50;;;18.60;98.80;;;;;;5019127;28;20409;-83
2023/08/03 01:17:19;;;;;;;71.47;8.93;;;18.60;98.00;;;;;;5018767;28;20447;-84
2023/08/03 01:19:44;;;;;;;71.27;10.13;;;18.70;97.80;;;;;;5018885;28;20425;-84
2023/08/03 01:22:12;;;;;;;73.83;13.30;;;18.70;95.50;;;;;;5018500;28;20932;-84
2023/08/03 01:24:38;;;;;;;74.73;13.70;;;18.60;96.00;;;;;;5019150;28;20170;-84
2023/08/03 01:27:05;;;;;;;72.57;8.17;;;18.60;96.40;;;;;;5000956;28;20420;-83
2023/08/03 01:29:31;;;;;;;72.90;8.80;;;18.60;98.20;;;;;;5018970;28;20186;-83
2023/08/03 01:31:58;;;;;;;71.90;8.80;;;18.60;96.90;;;;;;5001353;28;20424;-83
2023/08/03 01:34:24;;;;;;;71.10;9.03;;;18.60;96.70;;;;;;5018653;28;20171;-84
2023/08/03 01:36:51;;;;;;;71.70;10.50;;;18.60;97.00;;;;;;5019039;28;20968;-84
2023/08/03 01:39:17;;;;;;;72.67;8.60;;;18.60;98.50;;;;;;5001114;28;20437;-84
2023/08/03 01:41:43;;;;;;;73.60;9.07;;;18.50;99.90;;;;;;5018927;28;20401;-84
2023/08/03 01:44:22;;;;;;;73.73;10.23;;;18.40;99.90;;;;;;5019824;28;20816;-84
2023/08/03 01:46:49;;;;;;;77.20;10.13;;;18.40;99.90;;;;;;5019406;28;20170;-84
2023/08/03 01:49:16;;;;;;;72.60;10.17;;;18.30;99.90;;;;;;5018419;28;20777;-84
2023/08/03 01:51:41;;;;;;;79.93;30.07;;;18.30;99.90;;;;;;5000780;28;20452;-81
2023/08/03 01:54:09;;;;;;;98.33;68.47;;;18.20;99.90;;;;;;5018260;28;20487;-83
2023/08/03 01:56:35;;;;;;;103.57;80.73;;;18.20;99.90;;;;;;5000607;28;20193;-83
2023/08/03 01:59:00;;;;;;;103.23;76.80;;;18.00;99.90;;;;;;5000595;28;20515;-83
2023/08/03 02:01:26;;;;;;;105.53;91.33;;;18.00;99.90;;;;;;5017923;28;20162;-83
2023/08/03 02:03:52;;;;;;;123.10;110.73;;;17.80;99.90;;;;;;5018574;28;20166;-83
2023/08/03 02:06:17;;;;;;;116.43;104.40;;;17.70;99.90;;;;;;5018250;28;20173;-83
2023/08/03 02:08:43;;;;;;;125.20;112.87;;;17.70;99.90;;;;;;5000768;28;20193;-83
2023/08/03 02:11:09;;;;;;;108.03;96.53;;;17.70;99.90;;;;;;5017818;28;20162;-83
2023/08/03 02:13:34;;;;;;;107.10;95.43;;;17.80;99.90;;;;;;5018328;28;20515;-83
2023/08/03 02:16:04;;;;;;;106.90;95.53;;;17.80;99.90;;;;;;5000045;28;20673;-83
2023/08/03 02:18:30;;;;;;;112.17;99.77;;;17.80;99.90;;;;;;5018207;28;20178;-83
2023/08/03 02:20:56;;;;;;;118.00;106.10;;;17.70;99.90;;;;;;5000398;28;20423;-83
2023/08/03 02:23:22;;;;;;;109.83;97.97;;;17.70;99.90;;;;;;5093596;22;20493;-84
2023/08/03 02:25:50;;;;;;;96.67;79.57;;;17.70;99.90;;;;;;5022175;28;20698;-85
2023/08/03 02:28:16;;;;;;;98.27;70.87;;;17.70;99.90;;;;;;5021670;28;20405;-84
2023/08/03 02:30:42;;;;;;;99.00;71.63;;;17.80;99.90;;;;;;5016957;28;20475;-85
2023/08/03 02:33:07;;;;;;;106.10;89.67;;;17.70;99.90;;;;;;4999658;28;20166;-84
2023/08/03 02:35:37;;;;;;;90.00;61.40;;;17.70;99.90;;;;;;5016423;28;20158;-84
2023/08/03 02:38:03;;;;;;;104.33;81.33;;;17.80;99.90;;;;;;5023527;28;20158;-85
2023/08/03 02:40:29;;;;;;;104.43;79.27;;;17.70;99.90;;;;;;5020020;28;20840;-84
2023/08/03 02:42:54;;;;;;;105.30;88.90;;;17.70;99.90;;;;;;5021491;28;20487;-84
2023/08/03 02:45:20;;;;;;;96.47;65.47;;;17.70;99.90;;;;;;5016979;28;20765;-85
2023/08/03 02:47:46;;;;;;;90.53;54.63;;;17.80;99.90;;;;;;4998782;28;20170;-84
2023/08/03 02:50:12;;;;;;;97.47;71.63;;;17.80;99.90;;;;;;5016336;28;20193;-84
2023/08/03 02:52:38;;;;;;;87.97;52.73;;;17.80;99.90;;;;;;5022642;28;20408;-85
2023/08/03 02:55:04;;;;;;;95.13;55.87;;;17.80;99.90;;;;;;5016060;28;20166;-84
2023/08/03 02:57:29;;;;;;;83.50;36.90;;;17.80;99.90;;;;;;5016372;28;20243;-84
2023/08/03 02:59:55;;;;;;;91.77;58.20;;;17.90;99.90;;;;;;5017276;28;20429;-85
2023/08/03 03:02:21;;;;;;;85.63;48.13;;;17.90;99.90;;;;;;5021874;28;20169;-84
2023/08/03 03:04:46;;;;;;;89.63;59.57;;;17.90;99.90;;;;;;5016730;28;20162;-85
2023/08/03 03:07:12;;;;;;;98.90;74.23;;;17.90;99.90;;;;;;4999010;28;20415;-85
2023/08/03 03:09:38;;;;;;;101.47;76.83;;;17.90;99.90;;;;;;5016438;28;20603;-85
2023/08/03 03:12:12;;;;;;;101.73;68.90;;;17.90;99.90;;;;;;5016826;28;20197;-84
2023/08/03 03:14:38;;;;;;;95.70;57.27;;;18.00;99.90;;;;;;5017080;28;20641;-85
2023/08/03 03:17:04;;;;;;;97.70;72.07;;;18.00;99.90;;;;;;5023148;28;20490;-85
2023/08/03 03:19:30;;;;;;;106.17;88.93;;;18.00;99.90;;;;;;4998814;28;20216;-85
2023/08/03 03:21:56;;;;;;;105.90;90.63;;;17.90;99.90;;;;;;5021752;28;20192;-85
2023/08/03 03:24:22;;;;;;;103.40;92.13;;;17.90;99.90;;;;;;5001964;28;20642;-84
2023/08/03 03:26:47;;;;;;;100.60;84.63;;;17.90;99.90;;;;;;5020318;28;20415;-84
2023/08/03 03:29:13;;;;;;;102.83;83.27;;;17.80;99.90;;;;;;5004389;28;20261;-85
2023/08/03 03:31:39;;;;;;;97.43;71.13;;;17.90;99.90;;;;;;5002778;28;20178;-85
2023/08/03 03:34:04;;;;;;;88.87;58.50;;;17.90;99.90;;;;;;5022842;28;20178;-85
2023/08/03 03:36:30;;;;;;;80.70;34.60;;;18.00;99.90;;;;;;5020081;28;20284;-85
2023/08/03 03:38:56;;;;;;;76.17;24.03;;;18.00;99.90;;;;;;5021259;28;20189;-85
2023/08/03 03:41:21;;;;;;;80.93;33.53;;;18.00;99.90;;;;;;5004290;28;20176;-85
2023/08/03 03:43:47;;;;;;;82.10;34.73;;;18.10;99.90;;;;;;5003674;28;20175;-85
2023/08/03 03:46:13;;;;;;;84.47;46.23;;;18.10;99.90;;;;;;5026175;28;20176;-85
2023/08/03 03:48:38;;;;;;;84.27;41.20;;;18.00;99.90;;;;;;5025611;28;20209;-85
2023/08/03 03:51:04;;;;;;;99.77;81.03;;;18.00;99.90;;;;;;5020220;28;20169;-85
2023/08/03 03:53:30;;;;;;;114.43;102.73;;;17.80;99.90;;;;;;5019677;28;20205;-85
2023/08/03 03:55:55;;;;;;;122.10;110.10;;;17.80;99.90;;;;;;5006214;28;20202;-86
2023/08/03 03:58:21;;;;;;;137.33;124.43;;;17.70;99.90;;;;;;5019856;28;20201;-84
2023/08/03 04:00:47;;;;;;;128.40;115.87;;;17.70;99.90;;;;;;5020137;28;20174;-85
2023/08/03 04:03:15;;;;;;;140.20;127.07;;;17.70;99.90;;;;;;5022620;28;20158;-85
2023/08/03 04:05:41;;;;;;;156.30;142.43;;;17.60;99.90;;;;;;5019784;28;20228;-85
2023/08/03 04:08:06;;;;;;;152.27;138.87;;;17.50;99.90;;;;;;5019608;28;20401;-84
2023/08/03 04:10:32;;;;;;;177.67;163.17;;;17.50;99.90;;;;;;5023047;28;20164;-85
2023/08/03 04:12:58;;;;;;;156.03;142.10;;;17.40;99.90;;;;;;5004350;28;20176;-85
2023/08/03 04:15:24;;;;;;;211.77;196.03;;;17.40;99.90;;;;;;5006626;28;20436;-85
2023/08/03 04:17:50;;;;;;;172.30;158.30;;;17.10;99.90;;;;;;5018960;28;20190;-85
2023/08/03 04:20:16;;;;;;;188.93;174.07;;;17.20;99.90;;;;;;5019340;28;20188;-85
2023/08/03 04:22:42;;;;;;;187.03;172.00;;;17.20;99.90;;;;;;5005800;28;20198;-85
2023/08/03 04:25:08;;;;;;;191.43;175.73;;;17.20;99.90;;;;;;5019470;28;20405;-85
2023/08/03 04:27:34;;;;;;;179.47;165.13;;;17.20;99.90;;;;;;5001475;28;20413;-85
2023/08/03 04:30:00;;;;;;;165.53;151.73;;;17.30;99.90;;;;;;5017788;28;20800;-85
2023/08/03 04:32:26;;;;;;;158.33;144.93;;;17.30;99.90;;;;;;5019574;28;20769;-85
2023/08/03 04:34:51;;;;;;;170.70;156.33;;;17.20;99.90;;;;;;5019418;28;20492;-85
2023/08/03 04:37:17;;;;;;;156.87;143.43;;;17.30;99.90;;;;;;5019029;28;20726;-84
2023/08/03 04:39:43;;;;;;;174.70;160.57;;;17.30;99.90;;;;;;5019162;28;20186;-85
2023/08/03 04:42:08;;;;;;;160.00;146.47;;;17.30;99.90;;;;;;5019373;28;20185;-86
2023/08/03 04:44:34;;;;;;;168.57;154.63;;;17.20;99.90;;;;;;5019027;28;20513;-85
2023/08/03 04:47:00;;;;;;;168.37;154.57;;;17.20;99.90;;;;;;5018586;28;20166;-85
2023/08/03 04:49:25;;;;;;;161.13;147.53;;;17.30;99.90;;;;;;5022664;28;20225;-85
2023/08/03 04:51:52;;;;;;;167.27;152.97;;;17.30;99.90;;;;;;5019428;28;20405;-85
2023/08/03 04:54:18;;;;;;;159.80;146.30;;;17.30;99.90;;;;;;5018771;28;20170;-84
2023/08/03 04:56:44;;;;;;;157.63;144.23;;;17.30;99.90;;;;;;5017946;28;20440;-85
2023/08/03 04:59:09;;;;;;;162.60;148.90;;;17.30;99.90;;;;;;5019188;28;20433;-85
2023/08/03 05:01:35;;;;;;;168.37;153.97;;;17.30;99.90;;;;;;5018992;28;20170;-85
2023/08/03 05:04:01;;;;;;;114.47;102.77;;;17.50;99.90;;;;;;5018519;28;20170;-85
2023/08/03 05:06:27;;;;;;;114.47;102.77;;;17.60;99.90;;;;;;5018634;28;20170;-85
2023/08/03 05:08:53;;;;;;;106.63;95.37;;;17.60;99.90;;;;;;5018002;28;20189;-85
2023/08/03 05:11:19;;;;;;;102.60;91.50;;;17.70;99.90;;;;;;5004664;28;20932;-85
2023/08/03 05:13:44;;;;;;;104.53;93.23;;;17.70;99.90;;;;;;5017875;28;20428;-85
2023/08/03 05:16:10;;;;;;;97.00;77.53;;;17.70;99.90;;;;;;5000971;28;20194;-85
2023/08/03 05:18:36;;;;;;;97.40;79.03;;;17.80;99.90;;;;;;5022689;28;20285;-85
2023/08/03 05:21:02;;;;;;;96.37;77.87;;;17.80;99.90;;;;;;5018477;28;20174;-85
2023/08/03 05:23:27;;;;;;;101.47;84.37;;;17.80;99.90;;;;;;5018096;28;20545;-85
2023/08/03 05:25:57;;;;;;;100.37;86.57;;;17.80;99.90;;;;;;5018557;28;20177;-85
2023/08/03 05:28:24;;;;;;;102.77;83.10;;;18.00;99.90;;;;;;5018178;28;20169;-85
2023/08/03 05:30:50;;;;;;;99.03;82.40;;;18.00;99.90;;;;;;5022274;28;20401;-86
2023/08/03 05:33:16;;;;;;;112.30;100.73;;;18.00;99.90;;;;;;5006171;28;20412;-86
2023/08/03 05:35:44;;;;;;;99.13;84.80;;;17.90;99.90;;;;;;5019682;28;20480;-86
2023/08/03 05:38:10;;;;;;;97.97;82.97;;;17.90;99.90;;;;;;5019678;28;20405;-86
2023/08/03 05:40:39;;;;;;;115.43;103.77;;;17.90;99.90;;;;;;5020361;28;20397;-85
2023/08/03 05:43:10;;;;;;;131.13;118.43;;;17.90;99.90;;;;;;5022325;28;20393;-86
2023/08/03 05:45:48;;;;;;;117.93;106.17;;;17.80;99.90;;;;;;5019845;28;20892;-86
2023/08/03 05:48:17;;;;;;;112.77;101.23;;;17.90;99.90;;;;;;5006634;28;20404;-87
2023/08/03 05:50:48;;;;;;;119.40;107.53;;;17.90;99.90;;;;;;5007621;28;20420;-87
2023/08/03 05:53:15;;;;;;;101.53;89.57;;;17.90;99.90;;;;;;5004881;28;20780;-86
2023/08/03 05:55:42;;;;;;;100.03;87.43;;;18.00;99.90;;;;;;5024872;28;20407;-86
2023/08/03 05:58:13;;;;;;;103.40;88.53;;;18.20;99.90;;;;;;5003005;28;20412;-86
2023/08/03 06:00:41;;;;;;;106.80;89.80;;;18.40;99.90;;;;;;5004852;28;20488;-87
2023/08/03 06:03:14;;;;;;;107.07;95.30;;;18.40;99.90;;;;;;5021408;28;20397;-87
2023/08/03 06:05:49;;;;;;;108.63;97.03;;;18.40;99.90;;;;;;5021558;28;20468;-87
2023/08/03 06:08:20;;;;;;;101.83;90.30;;;18.40;99.90;;;;;;5021097;28;20492;-86
2023/08/03 06:10:48;;;;;;;99.27;84.83;;;18.40;99.90;;;;;;5003931;28;20440;-87
2023/08/03 06:13:17;;;;;;;101.60;87.30;;;18.30;99.90;;;;;;5025813;28;20920;-87
2023/08/03 06:15:44;;;;;;;106.40;91.53;;;18.30;99.90;;;;;;5026021;28;20405;-86
2023/08/03 06:18:18;;;;;;;99.67;87.63;;;18.30;99.90;;;;;;5009001;28;20409;-86
2023/08/03 06:20:46;;;;;;;110.93;98.60;;;18.30;99.90;;;;;;5019875;28;20451;-86
2023/08/03 06:23:23;;;;;;;109.37;95.43;;;18.30;99.90;;;;;;5019794;28;20467;-86
2023/08/03 06:25:51;;;;;;;101.87;81.50;;;18.30;99.90;;;;;;5019725;28;20446;-86
2023/08/03 06:28:19;;;;;;;94.03;67.50;;;18.30;99.90;;;;;;5002313;28;20408;-86
2023/08/03 06:30:46;;;;;;;82.93;37.60;;;18.30;99.90;;;;;;5020327;28;20404;-86
2023/08/03 06:33:14;;;;;;;81.23;36.77;;;18.40;99.90;;;;;;5019545;28;20397;-86
2023/08/03 06:35:42;;;;;;;91.00;53.03;;;18.40;99.90;;;;;;5021295;28;20397;-86
2023/08/03 06:38:32;;;;;;;77.30;25.13;;;18.30;99.90;;;;;;5021410;28;20746;-85
2023/08/03 06:40:58;;;;;;;87.03;38.23;;;18.30;99.90;;;;;;5021037;28;20393;-87
2023/08/03 06:43:24;;;;;;;83.93;35.87;;;18.30;99.90;;;;;;5021240;28;20463;-87
2023/08/03 06:45:50;;;;;;;78.83;29.13;;;18.30;99.90;;;;;;5004151;28;20409;-86
2023/08/03 06:48:16;;;;;;;77.73;23.00;;;18.40;99.90;;;;;;5024640;28;20166;-86
2023/08/03 06:50:43;;;;;;;73.07;16.33;;;18.40;99.90;;;;;;5021974;28;20409;-86
2023/08/03 06:53:09;;;;;;;72.67;15.17;;;18.40;99.90;;;;;;5023024;28;20535;-86
2023/08/03 06:55:35;;;;;;;73.67;16.43;;;18.40;99.90;;;;;;5025486;28;20487;-86
2023/08/03 06:58:01;;;;;;;83.07;36.30;;;18.40;99.90;;;;;;5022837;28;20441;-85
2023/08/03 07:00:26;;;;;;;104.50;82.13;;;18.40;99.90;;;;;;5002865;28;20186;-85
2023/08/03 07:02:52;;;;;;;108.03;96.10;;;18.30;99.90;;;;;;5021106;28;20614;-86
2023/08/03 07:05:18;;;;;;;107.00;92.77;;;18.30;99.90;;;;;;5000201;28;20630;-86
2023/08/03 07:07:44;;;;;;;103.00;90.07;;;18.20;99.90;;;;;;5016793;28;20436;-86
2023/08/03 07:10:09;;;;;;;113.57;101.33;;;18.20;99.90;;;;;;5021231;28;20198;-85
2023/08/03 07:12:36;;;;;;;107.63;89.27;;;18.20;99.90;;;;;;5018892;28;20174;-86
2023/08/03 07:15:02;;;;;;;111.97;99.87;;;18.20;99.90;;;;;;5000039;28;20174;-85
2023/08/03 07:17:31;;;;;;;127.40;114.53;;;18.10;99.90;;;;;;4998009;28;20499;-85
2023/08/03 07:19:56;;;;;;;142.97;129.87;;;18.00;99.90;;;;;;5000199;28;20432;-85
2023/08/03 07:22:22;;;;;;;128.20;115.53;;;17.90;99.90;;;;;;5001228;28;20424;-85
2023/08/03 07:24:48;;;;;;;130.23;117.60;;;17.80;99.90;;;;;;5018995;28;20170;-85
2023/08/03 07:27:14;;;;;;;143.07;130.30;;;17.90;99.90;;;;;;5000924;28;20412;-85
2023/08/03 07:29:41;;;;;;;158.37;144.87;;;17.80;99.90;;;;;;5019176;28;20785;-84
2023/08/03 07:32:07;;;;;;;162.20;148.37;;;17.80;99.90;;;;;;5018879;28;20491;-83
2023/08/03 07:34:33;;;;;;;148.20;135.17;;;17.90;99.90;;;;;;5000734;28;20959;-84
2023/08/03 07:36:59;;;;;;;151.23;137.93;;;17.90;99.90;;;;;;5019025;28;20499;-85
2023/08/03 07:39:28;;;;;;;159.07;145.30;;;17.90;99.90;;;;;;5018404;28;20186;-85
2023/08/03 07:41:54;;;;;;;174.90;160.00;;;17.90;99.90;;;;;;5000857;28;20510;-84
2023/08/03 07:44:19;;;;;;;167.23;153.27;;;18.00;99.90;;;;;;5000846;28;20428;-85
2023/08/03 07:46:46;;;;;;;150.20;136.60;;;17.90;99.90;;;;;;5018718;28;20177;-84
2023/08/03 07:49:12;;;;;;;117.43;105.47;;;18.10;99.90;;;;;;5018637;28;20193;-85
2023/08/03 07:51:38;;;;;;;115.97;104.27;;;18.30;99.90;;;;;;5017959;28;20416;-84
2023/08/03 07:54:03;;;;;;;114.00;102.23;;;18.30;99.90;;;;;;5000452;28;20416;-84
2023/08/03 07:56:30;;;;;;;101.10;89.53;;;18.40;99.90;;;;;;5017638;28;20228;-85
2023/08/03 07:59:00;;;;;;;99.67;85.33;;;18.50;99.90;;;;;;5000403;28;20244;-84
2023/08/03 08:01:26;;;;;;;105.23;92.93;;;18.50;99.90;;;;;;5018181;28;20401;-85
2023/08/03 08:03:52;;;;;;;102.00;84.93;;;18.50;99.90;;;;;;5018397;28;20413;-86
2023/08/03 08:06:20;;;;;;;109.50;97.50;;;18.50;99.90;;;;;;5004002;28;20417;-84
2023/08/03 08:08:47;;;;;;;117.63;105.63;;;18.50;99.90;;;;;;5019914;28;20586;-85
2023/08/03 08:11:14;;;;;;;109.40;94.93;;;18.40;99.90;;;;;;5001462;28;20912;-84
2023/08/03 08:13:41;;;;;;;101.57;89.10;;;18.50;99.90;;;;;;5020831;28;20409;-85
2023/08/03 08:16:12;;;;;;;101.57;86.23;;;18.50;99.90;;;;;;5022094;28;20460;-86
2023/08/03 08:18:38;;;;;;;100.80;86.97;;;18.60;99.90;;;;;;5018545;28;20416;-85
2023/08/03 08:21:06;;;;;;;101.60;89.40;;;18.70;99.90;;;;;;5018656;28;20447;-85
2023/08/03 08:23:32;;;;;;;92.93;69.50;;;18.80;99.90;;;;;;5072481;22;20491;-83
2023/08/03 08:25:58;;;;;;;85.93;50.00;;;18.90;99.90;;;;;;5018389;28;20412;-82
2023/08/03 08:28:24;;;;;;;84.07;46.60;;;18.80;99.90;;;;;;5018183;28;20194;-82
2023/08/03 08:30:50;;;;;;;77.50;22.30;;;18.80;99.90;;;;;;5017830;28;20185;-82
2023/08/03 08:33:17;;;;;;;86.30;42.20;;;18.90;99.90;;;;;;5000553;28;20401;-82
2023/08/03 08:35:45;;;;;;;75.90;20.43;;;18.80;99.90;;;;;;5018379;28;20409;-82
2023/08/03 08:38:14;;;;;;;73.37;14.73;;;18.80;99.90;;;;;;5018301;28;20401;-82
2023/08/03 08:40:41;;;;;;;72.37;13.27;;;18.90;99.90;;;;;;5017712;28;20404;-82
2023/08/03 08:43:07;;;;;;;75.77;16.27;;;19.00;99.90;;;;;;5017913;28;20385;-82
2023/08/03 08:45:34;;;;;;;74.53;14.73;;;19.10;99.90;;;;;;5017601;28;20460;-82
2023/08/03 08:47:59;;;;;;;72.93;14.57;;;19.00;99.90;;;;;;5017318;28;20421;-82
2023/08/03 08:50:25;;;;;;;74.27;13.63;;;19.00;99.90;;;;;;5017444;28;20487;-81
2023/08/03 08:52:52;;;;;;;73.57;12.83;;;19.00;99.90;;;;;;5017302;28;20196;-82
2023/08/03 08:55:20;;;;;;;72.40;11.47;;;19.00;99.90;;;;;;5017759;28;20938;-82
2023/08/03 08:57:46;;;;;;;73.00;11.23;;;19.10;99.90;;;;;;5017090;28;20443;-82
2023/08/03 09:00:13;;;;;;;73.07;14.90;;;19.10;99.90;;;;;;5017304;28;21005;-81
2023/08/03 09:02:39;;;;;;;71.87;10.57;;;19.10;99.90;;;;;;5016948;28;20613;-81
2023/08/03 09:05:24;;;;;;;72.27;13.33;;;19.10;99.90;;;;;;5017186;28;20408;-81
2023/08/03 09:08:00;;;;;;;76.47;13.07;;;19.20;99.90;;;;;;5017175;28;20166;-82
2023/08/03 09:10:25;;;;;;;73.17;14.57;;;19.10;99.90;;;;;;4999843;28;20424;-81
2023/08/03 09:12:51;;;;;;;76.13;22.07;;;19.00;99.90;;;;;;4999267;28;20939;-81
2023/08/03 09:15:17;;;;;;;82.97;35.93;;;19.10;99.90;;;;;;5016698;28;20173;-80
2023/08/03 09:17:47;;;;;;;78.70;31.60;;;19.00;99.90;;;;;;5016560;28;20740;-81
2023/08/03 09:20:25;;;;;;;79.47;30.97;;;19.00;99.90;;;;;;4999551;28;20248;-81
2023/08/03 09:22:51;;;;;;;85.00;43.57;;;19.00;99.90;;;;;;5016285;28;20413;-81
2023/08/03 09:25:17;;;;;;;96.90;69.47;;;19.10;99.90;;;;;;5016921;28;20807;-81
2023/08/03 09:27:51;;;;;;;85.10;49.33;;;19.20;99.90;;;;;;5016937;28;20676;-81
2023/08/03 09:30:17;;;;;;;84.43;48.30;;;19.30;99.90;;;;;;5015922;28;20182;-81
2023/08/03 09:32:43;;;;;;;96.10;65.03;;;19.40;99.90;;;;;;5016095;28;20404;-81
2023/08/03 09:35:25;;;;;;;105.17;87.93;;;19.20;99.90;;;;;;5016478;28;20404;-81
2023/08/03 09:37:52;;;;;;;116.27;104.03;;;19.00;99.90;;;;;;5015752;28;20440;-81
2023/08/03 09:40:19;;;;;;;125.57;112.80;;;19.00;99.90;;;;;;5015966;28;20436;-80
2023/08/03 09:42:49;;;;;;;121.00;108.90;;;19.10;99.90;;;;;;4997898;28;20492;-80
2023/08/03 09:45:16;;;;;;;136.57;123.80;;;19.10;99.90;;;;;;5016026;28;20935;-81
2023/08/03 09:47:42;;;;;;;133.83;120.80;;;19.10;99.90;;;;;;5016059;28;20401;-81
2023/08/03 09:50:09;;;;;;;124.40;112.33;;;19.10;99.90;;;;;;5015974;28;20421;-81
2023/08/03 09:52:49;;;;;;;118.80;106.97;;;19.20;99.90;;;;;;5015864;28;20852;-81
2023/08/03 09:55:21;;;;;;;127.33;115.03;;;19.30;99.90;;;;;;5015684;28;20412;-81
2023/08/03 09:57:51;;;;;;;113.30;101.80;;;19.40;99.90;;;;;;4999323;28;20469;-81
2023/08/03 10:00:18;;;;;;;102.23;91.13;;;19.40;99.90;;;;;;5017654;28;20417;-82
2023/08/03 10:02:54;;;;;;;114.30;102.73;;;19.60;99.90;;;;;;5018770;28;20407;-82
2023/08/03 10:05:21;;;;;;;106.73;93.57;;;19.80;99.90;;;;;;5018750;28;20416;-82
2023/08/03 10:07:52;;;;;;;110.20;98.33;;;19.90;99.90;;;;;;5018271;28;20413;-81
2023/08/03 10:10:21;;;;;;;111.17;99.53;;;20.00;99.90;;;;;;5017645;28;20417;-82
2023/08/03 10:12:55;;;;;;;104.30;91.60;;;20.00;99.90;;;;;;5017489;28;20463;-82
2023/08/03 10:15:22;;;;;;;112.50;100.50;;;20.10;99.90;;;;;;5016742;28;20904;-81
2023/08/03 10:17:48;;;;;;;114.77;102.87;;;20.10;99.90;;;;;;5015833;28;20444;-82
2023/08/03 10:20:14;;;;;;;97.97;68.73;;;20.40;99.90;;;;;;5016548;28;20441;-82
2023/08/03 10:23:10;;;;;;;76.17;21.10;;;20.70;99.90;;;;;;5015897;28;20421;-82
2023/08/03 10:26:02;;;;;;;77.00;23.80;;;21.00;99.90;;;;;;4998122;28;20884;-81
2023/08/03 10:28:40;;;;;;;72.03;9.67;;;21.20;99.90;;;;;;5013413;28;20452;-82
2023/08/03 10:31:16;;;;;;;73.93;14.37;;;21.50;99.90;;;;;;5015730;28;20407;-82
2023/08/03 10:33:50;;;;;;;75.10;19.73;;;21.70;99.90;;;;;;5015927;28;20393;-82
2023/08/03 10:36:27;;;;;;;80.83;37.20;;;21.70;99.90;;;;;;5015752;28;20446;-83
2023/08/03 10:38:54;;;;;;;82.67;37.13;;;21.50;99.90;;;;;;4998289;28;20805;-81
2023/08/03 10:41:27;;;;;;;81.07;35.23;;;21.40;99.90;;;;;;5015710;28;20760;-82
2023/08/03 10:44:13;;;;;;;84.07;42.50;;;21.50;99.90;;;;;;5015602;28;20934;-81
2023/08/03 10:46:40;;;;;;;83.50;43.77;;;21.50;99.90;;;;;;5016278;28;20756;-81
2023/08/03 10:49:27;;;;;;;75.90;17.27;;;21.60;99.90;;;;;;4998243;28;20445;-82
2023/08/03 10:52:16;;;;;;;71.70;8.97;;;21.80;94.10;;;;;;5015927;28;20417;-82
2023/08/03 10:54:42;;;;;;;75.17;15.60;;;22.00;90.80;;;;;;5017334;28;20396;-82
2023/08/03 10:57:09;;;;;;;74.10;12.30;;;22.20;72.20;;;;;;5001535;28;20445;-79
2023/08/03 10:59:40;;;;;;;73.17;13.20;;;22.20;71.80;;;;;;5001547;28;20441;-81
2023/08/03 11:02:20;;;;;;;76.10;14.53;;;22.20;69.60;;;;;;5019645;28;20455;-82
2023/08/03 11:04:46;;;;;;;72.40;8.57;;;22.50;66.60;;;;;;5019926;28;20420;-81
2023/08/03 11:07:20;;;;;;;77.67;9.23;;;22.80;64.40;;;;;;5020148;28;20412;-80
2023/08/03 11:09:48;;;;;;;69.70;5.00;;;23.20;56.90;;;;;;5019236;28;20439;-81
2023/08/03 11:12:16;;;;;;;72.57;4.60;;;23.60;38.60;;;;;;5018694;28;20773;-80
2023/08/03 11:14:44;;;;;;;71.20;3.77;;;23.70;7.90;;;;;;5001540;28;20425;-81
2023/08/03 11:17:11;;;;;;;71.47;5.57;;;23.60;21.30;;;;;;5019122;28;20440;-81
2023/08/03 11:19:39;;;;;;;71.47;5.00;;;23.30;10.70;;;;;;5001101;28;20527;-81
2023/08/03 11:22:06;;;;;;;71.77;4.40;;;23.00;23.50;;;;;;5018720;28;20920;-82
2023/08/03 11:24:32;;;;;;;71.40;3.87;;;22.80;22.90;;;;;;5019119;28;20417;-81
2023/08/03 11:26:59;;;;;;;71.60;5.70;;;22.90;35.30;;;;;;5019641;28;20423;-81
2023/08/03 11:29:25;;;;;;;71.17;4.87;;;22.90;35.70;;;;;;5019223;28;20475;-81
2023/08/03 11:31:51;;;;;;;71.70;4.07;;;22.80;48.60;;;;;;5018773;28;20777;-81
2023/08/03 11:34:17;;;;;;;70.07;4.63;;;22.70;25.20;;;;;;5001081;28;20416;-81
2023/08/03 11:36:50;;;;;;;69.97;4.37;;;22.50;41.10;;;;;;5019036;28;20227;-81
2023/08/03 11:39:15;;;;;;;70.20;4.27;;;22.60;43.30;;;;;;5018692;28;20178;-80
2023/08/03 11:41:42;;;;;;;70.90;4.60;;;22.90;41.80;;;;;;5019143;28;20924;-81
2023/08/03 11:44:09;;;;;;;72.97;4.73;;;23.10;45.20;;;;;;5018692;28;20166;-81
2023/08/03 11:46:34;;;;;;;70.30;5.13;;;23.30;20.20;;;;;;5000849;28;20445;-81
2023/08/03 11:49:02;;;;;;;73.47;5.40;;;23.40;16.30;;;;;;5000743;28;20431;-81
2023/08/03 11:51:31;;;;;;;72.07;4.70;;;23.20;9.60;;;;;;5018370;28;20170;-81
2023/08/03 11:54:04;;;;;;;77.03;6.20;;;23.10;8.50;;;;;;5018366;28;20416;-81
2023/08/03 11:56:30;;;;;;;70.57;4.40;;;22.90;9.10;;;;;;5018303;28;20443;-81
2023/08/03 11:59:01;;;;;;;70.97;4.70;;;22.90;21.30;;;;;;5018329;28;20427;-81
2023/08/03 12:01:27;;;;;;;69.87;5.10;;;22.80;20.20;;;;;;5017947;28;20500;-81
2023/08/03 12:04:26;;;;;;;72.80;5.57;;;22.60;22.30;;;;;;5017989;28;20901;-80
2023/08/03 12:06:53;;;;;;;70.50;4.47;;;22.50;15.90;;;;;;5003172;28;20443;-81
2023/08/03 12:09:27;;;;;;;71.00;5.00;;;22.40;13.80;;;;;;5017767;28;20796;-81
2023/08/03 12:12:03;;;;;;;71.00;4.70;;;22.50;24.00;;;;;;5000435;28;20784;-80
2023/08/03 12:14:29;;;;;;;69.43;4.20;;;22.70;18.00;;;;;;5018234;28;20935;-81
2023/08/03 12:16:55;;;;;;;72.07;4.63;;;22.90;21.30;;;;;;5000061;28;20499;-81
2023/08/03 12:19:21;;;;;;;71.57;4.40;;;23.00;18.00;;;;;;5018316;28;20198;-81
2023/08/03 12:21:47;;;;;;;70.20;5.00;;;22.90;20.50;;;;;;5017546;28;20496;-81
2023/08/03 12:24:13;;;;;;;71.30;4.70;;;22.80;29.90;;;;;;5017388;28;20390;-81
2023/08/03 12:26:40;;;;;;;69.60;4.33;;;23.10;12.70;;;;;;5000088;28;20452;-81